Time;durP1;ratioP1;P1;durP2;ratioP2;P2;SDS_P1;SDS_P2;PMS_P1;PMS_P2;Temp;Humidity;BMP_temperature;BMP_pressure;BME280_temperature;BME280_humidity;BME280_pressure;Samples;Min_cycle;Max_cycle;Signal;HPM_P1;HPM_P2
2023/01/13 00:01:12;;;;;;;9.05;5.28;;;;;;;6.90;96.90;100457.72;5029339;28;20040;-29
2023/01/13 00:03:38;;;;;;;8.10;4.85;;;;;;;6.87;96.96;100461.56;5027761;28;20032;-29
2023/01/13 00:06:04;;;;;;;11.65;8.10;;;;;;;7.10;96.55;100466.72;5028969;28;20025;-28
2023/01/13 00:08:29;;;;;;;7.85;5.40;;;;;;;6.82;96.45;100463.94;5027763;28;20998;-28
2023/01/13 00:10:55;;;;;;;7.53;4.63;;;;;;;6.75;97.22;100455.09;5029260;28;20109;-30
2023/01/13 00:13:25;;;;;;;8.70;5.15;;;;;;;6.83;96.70;100447.84;5028982;28;20060;-27
2023/01/13 00:16:03;;;;;;;10.40;5.75;;;;;;;6.73;96.63;100452.63;5029547;28;20099;-28
2023/01/13 00:18:28;;;;;;;8.98;3.97;;;;;;;6.64;95.82;100459.03;5029312;28;20029;-28
2023/01/13 00:21:24;;;;;;;7.40;4.20;;;;;;;6.99;95.50;100472.53;5028937;28;20057;-28
2023/01/13 00:23:54;;;;;;;7.22;4.25;;;;;;;6.71;96.15;100448.50;5028514;28;20701;-28
2023/01/13 00:26:22;;;;;;;6.32;3.60;;;;;;;6.65;96.83;100463.31;5028592;28;20049;-28
2023/01/13 00:28:47;;;;;;;5.90;3.05;;;;;;;6.62;95.88;100455.75;5028788;28;20037;-27
2023/01/13 00:31:16;;;;;;;6.07;2.95;;;;;;;6.44;96.58;100446.31;5028646;28;20033;-32
2023/01/13 00:33:41;;;;;;;6.47;2.85;;;;;;;6.35;98.99;100465.13;5028764;28;20029;-27
2023/01/13 00:36:09;;;;;;;6.78;3.35;;;;;;;6.46;99.20;100466.50;5027232;28;20425;-31
2023/01/13 00:38:35;;;;;;;6.03;2.97;;;;;;;6.54;98.43;100458.44;5027274;28;20096;-28
2023/01/13 00:41:05;;;;;;;6.47;3.42;;;;;;;6.67;98.02;100468.44;5028814;28;20060;-29
2023/01/13 00:43:32;;;;;;;7.00;3.33;;;;;;;6.69;98.29;100456.63;5028702;28;20096;-37
2023/01/13 00:45:58;;;;;;;6.65;3.22;;;;;;;6.75;96.94;100461.19;5028700;28;20018;-28
2023/01/13 00:48:24;;;;;;;6.15;3.47;;;;;;;6.59;97.30;100456.09;5028615;28;20037;-28
2023/01/13 00:50:58;;;;;;;6.93;3.35;;;;;;;6.33;97.68;100433.50;5028359;28;20068;-27
2023/01/13 00:53:24;;;;;;;6.28;3.35;;;;;;;6.25;98.95;100433.59;5028884;28;20087;-30
2023/01/13 00:55:58;;;;;;;6.00;3.33;;;;;;;6.56;98.18;100441.38;5027304;28;20041;-29
2023/01/13 00:58:24;;;;;;;7.07;3.22;;;;;;;6.65;97.47;100450.06;5028609;28;20478;-30
2023/01/13 01:00:49;;;;;;;7.10;3.42;;;;;;;6.48;98.14;100444.13;5027219;28;20033;-35
2023/01/13 01:03:14;;;;;;;7.93;3.50;;;;;;;6.41;99.20;100433.41;5027192;28;20040;-31
2023/01/13 01:05:40;;;;;;;8.48;3.58;;;;;;;6.28;100.00;100424.47;5028294;28;20116;-30
2023/01/13 01:08:05;;;;;;;9.52;3.88;;;;;;;6.38;99.89;100439.09;5029347;28;20414;-30
2023/01/13 01:10:31;;;;;;;7.32;3.97;;;;;;;6.53;98.95;100447.03;5032215;28;20057;-29
2023/01/13 01:12:56;;;;;;;9.73;4.80;;;;;;;6.51;98.50;100437.63;5032183;28;20026;-28
2023/01/13 01:15:22;;;;;;;9.25;5.13;;;;;;;6.52;98.54;100444.56;5032302;28;20025;-27
2023/01/13 01:17:47;;;;;;;10.75;5.10;;;;;;;6.46;98.52;100424.09;5030472;28;20033;-27
2023/01/13 01:20:12;;;;;;;10.80;4.43;;;;;;;6.45;98.03;100423.28;5032144;28;20026;-28
2023/01/13 01:22:38;;;;;;;8.23;4.38;;;;;;;6.36;98.40;100433.16;5030829;28;20454;-31
2023/01/13 01:25:03;;;;;;;8.40;4.85;;;;;;;6.22;98.66;100433.97;5031965;28;20030;-28
2023/01/13 01:27:29;;;;;;;8.68;4.95;;;;;;;6.08;99.25;100426.84;5030360;28;20077;-28
2023/01/13 01:29:54;;;;;;;6.15;3.55;;;;;;;6.18;98.03;100414.16;5031834;28;20026;-27
2023/01/13 01:32:20;;;;;;;9.95;4.57;;;;;;;6.27;97.59;100425.47;5030118;28;20025;-28
2023/01/13 01:34:45;;;;;;;18.23;7.82;;;;;;;6.23;98.28;100417.06;5032131;28;20091;-28
2023/01/13 01:37:10;;;;;;;17.80;8.63;;;;;;;6.20;98.24;100420.09;5030667;28;20029;-27
2023/01/13 01:39:36;;;;;;;6.82;2.92;;;;;;;6.31;98.04;100438.16;5030343;28;20026;-30
2023/01/13 01:44:55;;;;;;;5.88;2.70;;;;;;;5.94;98.95;100410.69;5031944;28;20614;-27
2023/01/13 01:47:22;;;;;;;5.72;3.00;;;;;;;6.11;98.98;100431.75;5031606;28;20049;-28
2023/01/13 01:49:48;;;;;;;5.00;2.45;;;;;;;6.06;97.89;100436.78;5031592;28;20026;-27
2023/01/13 01:52:20;;;;;;;4.93;2.47;;;;;;;5.86;98.27;100433.78;5031445;28;20036;-28
2023/01/13 01:55:20;;;;;;;6.20;2.67;;;;;;;5.91;99.25;100429.59;5031475;28;20028;-27
2023/01/13 01:58:04;;;;;;;5.22;2.58;;;;;;;5.96;99.54;100434.38;5029640;28;20095;-27
2023/01/13 02:00:30;;;;;;;5.25;2.47;;;;;;;5.69;99.92;100423.34;5031893;28;20080;-28
2023/01/13 02:02:56;;;;;;;7.57;3.05;;;;;;;5.69;100.00;100427.81;5029876;28;20060;-31
2023/01/13 02:05:22;;;;;;;7.90;3.95;;;;;;;5.94;99.41;100436.34;5031351;28;20026;-29
2023/01/13 02:07:51;;;;;;;8.52;3.97;;;;;;;6.04;98.95;100432.47;5029470;28;20030;-30
2023/01/13 02:10:19;;;;;;;7.93;4.35;;;;;;;5.98;98.73;100440.31;5031100;28;20482;-28
2023/01/13 02:12:47;;;;;;;8.63;3.53;;;;;;;6.09;98.07;100433.75;5029874;28;20137;-29
2023/01/13 02:15:17;;;;;;;7.10;3.35;;;;;;;6.11;97.88;100439.69;5029918;28;20048;-30
2023/01/13 02:18:01;;;;;;;6.28;3.40;;;;;;;6.11;98.20;100437.88;5031093;28;20091;-27
2023/01/13 02:20:26;;;;;;;6.18;3.13;;;;;;;6.13;97.68;100441.19;5029952;28;20029;-28
2023/01/13 02:23:04;;;;;;;5.35;2.78;;;;;;;6.24;97.57;100442.56;5031036;28;20033;-26
2023/01/13 02:26:18;;;;;;;5.82;3.17;;;;;;;5.95;98.30;100417.69;5030794;28;20035;-28
2023/01/13 02:31:48;;;;;;;5.15;2.60;;;;;;;5.92;99.08;100428.59;5030666;28;20053;-28
2023/01/13 02:34:47;;;;;;;5.13;2.97;;;;;;;5.97;97.86;100442.16;5030624;28;20111;-27
2023/01/13 02:37:27;;;;;;;5.05;2.95;;;;;;;6.00;98.50;100439.13;5030289;28;20037;-28
2023/01/13 02:39:55;;;;;;;5.68;2.83;;;;;;;6.22;97.87;100450.69;5030734;28;20030;-28
2023/01/13 02:45:28;;;;;;;6.18;3.15;;;;;;;5.85;98.99;100448.84;5030435;28;20421;-27
2023/01/13 02:47:57;;;;;;;8.52;3.58;;;;;;;5.88;99.12;100442.38;5029356;28;20458;-27
2023/01/13 02:50:28;;;;;;;5.72;2.97;;;;;;;5.67;100.00;100427.16;5030368;28;20424;-26
2023/01/13 02:53:12;;;;;;;6.88;3.30;;;;;;;5.61;100.00;100450.66;5030957;28;20094;-27
2023/01/13 02:55:58;;;;;;;6.55;3.55;;;;;;;5.93;100.00;100448.78;5029084;28;20064;-26
2023/01/13 02:58:27;;;;;;;7.05;3.30;;;;;;;5.83;100.00;100456.13;5030599;28;20028;-27
2023/01/13 03:00:53;;;;;;;6.68;3.42;;;;;;;5.76;99.77;100449.91;5028968;28;20114;-29
2023/01/13 03:03:18;;;;;;;12.95;11.60;;;;;;;5.79;100.00;100449.56;5030207;28;20517;-27
2023/01/13 03:05:47;;;;;;;23.88;14.25;;;;;;;5.97;99.87;100457.22;5030167;28;20053;-28
2023/01/13 03:08:16;;;;;;;9.05;5.60;;;;;;;6.07;99.88;100456.94;5028524;28;20068;-30
2023/01/13 03:11:01;;;;;;;6.10;3.17;;;;;;;6.17;98.60;100461.00;5030248;28;20719;-28
2023/01/13 03:13:37;;;;;;;15.65;10.00;;;;;;;5.93;99.60;100448.78;5028781;28;20029;-34
2023/01/13 03:16:02;;;;;;;20.95;12.10;;;;;;;5.67;100.00;100451.78;5029904;28;20025;-29
2023/01/13 03:18:58;;;;;;;27.90;15.50;;;;;;;5.78;100.00;100447.91;5029825;28;20029;-27
2023/01/13 03:21:42;;;;;;;41.90;24.77;;;;;;;5.67;100.00;100456.28;5028653;28;20029;-28
2023/01/13 03:24:16;;;;;;;59.78;35.78;;;;;;;5.49;100.00;100454.72;5029635;28;20029;-28
2023/01/13 03:26:49;;;;;;;42.05;28.27;;;;;;;5.38;100.00;100457.78;5028181;28;20135;-27
2023/01/13 03:29:23;;;;;;;11.20;7.00;;;;;;;5.22;100.00;100459.53;5029746;28;20037;-28
2023/01/13 03:32:00;;;;;;;11.95;6.57;;;;;;;5.50;100.00;100453.75;5029392;28;20029;-27
2023/01/13 03:35:04;;;;;;;21.15;14.25;;;;;;;5.56;100.00;100454.88;5028532;28;20026;-27
2023/01/13 03:37:34;;;;;;;13.60;11.82;;;;;;;5.47;100.00;100451.44;5023927;28;20041;-27
2023/01/13 03:40:07;;;;;;;10.02;6.60;;;;;;;5.59;100.00;100460.59;5028227;28;20048;-30
2023/01/13 03:42:36;;;;;;;20.90;17.77;;;;;;;5.77;100.00;100470.09;5029474;28;20618;-27
2023/01/13 03:45:14;;;;;;;37.28;29.33;;;;;;;5.86;100.00;100471.66;5028125;28;20534;-27
2023/01/13 03:47:51;;;;;;;46.58;29.77;;;;;;;5.62;100.00;100477.97;5029342;28;20041;-27
2023/01/13 03:50:26;;;;;;;41.92;32.58;;;;;;;5.60;100.00;100478.16;5029401;28;20033;-28
2023/01/13 03:53:09;;;;;;;142.50;68.13;;;;;;;5.77;100.00;100472.72;5029406;28;20025;-26
2023/01/13 03:55:40;;;;;;;197.23;82.10;;;;;;;5.77;100.00;100452.38;5029186;28;20115;-27
2023/01/13 03:58:13;;;;;;;569.53;241.98;;;;;;;5.71;100.00;100455.72;5029137;28;20033;-27
2023/01/13 04:00:58;;;;;;;176.55;88.75;;;;;;;5.82;100.00;100473.00;5029006;28;20489;-28
2023/01/13 04:03:37;;;;;;;117.25;63.85;;;;;;;5.74;100.00;100478.38;5028063;28;20057;-28
2023/01/13 04:06:40;;;;;;;93.15;51.90;;;;;;;5.97;100.00;100476.56;5027623;28;20040;-28
2023/01/13 04:09:26;;;;;;;48.33;32.45;;;;;;;5.75;100.00;100487.97;5029342;28;20040;-32
2023/01/13 04:12:17;;;;;;;90.70;53.30;;;;;;;5.81;100.00;100492.56;5029227;28;20036;-28
2023/01/13 04:14:44;;;;;;;157.30;90.03;;;;;;;5.80;100.00;100481.16;5029113;28;20065;-33
2023/01/13 04:17:09;;;;;;;218.55;129.80;;;;;;;5.80;100.00;100489.09;5027671;28;20026;-28
2023/01/13 04:19:35;;;;;;;89.00;58.25;;;;;;;5.76;100.00;100460.47;5028831;28;20038;-29
2023/01/13 04:22:00;;;;;;;168.85;100.40;;;;;;;5.77;100.00;100472.72;5027685;28;20116;-29
2023/01/13 04:24:26;;;;;;;65.65;47.00;;;;;;;5.97;100.00;100495.09;5029235;28;20033;-28
2023/01/13 04:26:51;;;;;;;63.65;47.85;;;;;;;6.06;100.00;100493.19;5027428;28;20140;-29
2023/01/13 04:29:17;;;;;;;33.97;24.42;;;;;;;5.97;100.00;100487.16;5027431;28;20057;-26
2023/01/13 04:31:42;;;;;;;52.80;37.88;;;;;;;5.89;100.00;100497.78;5027317;28;20029;-27
2023/01/13 04:34:09;;;;;;;101.18;66.03;;;;;;;5.93;100.00;100493.78;5028692;28;20049;-30
2023/01/13 04:36:35;;;;;;;121.78;72.57;;;;;;;6.01;100.00;100496.38;5029104;28;20034;-28
2023/01/13 04:39:01;;;;;;;50.15;29.90;;;;;;;5.98;100.00;100475.53;5028945;28;20040;-27
2023/01/13 04:41:27;;;;;;;19.38;12.35;;;;;;;5.90;100.00;100483.53;5027502;28;20033;-27
2023/01/13 04:43:52;;;;;;;59.08;31.98;;;;;;;5.96;100.00;100482.84;5032134;28;20018;-26
2023/01/13 04:46:17;;;;;;;18.73;8.40;;;;;;;5.88;100.00;100501.41;5032381;28;20025;-28
2023/01/13 04:48:43;;;;;;;49.83;34.50;;;;;;;5.90;100.00;100485.34;5031519;28;20091;-30
2023/01/13 04:51:08;;;;;;;18.85;12.00;;;;;;;5.78;100.00;100504.31;5032623;28;20112;-27
2023/01/13 04:53:34;;;;;;;17.83;11.80;;;;;;;5.84;100.00;100503.63;5032599;28;20683;-27
2023/01/13 04:55:59;;;;;;;13.40;10.02;;;;;;;5.91;100.00;100509.00;5032530;28;20041;-35
2023/01/13 04:58:24;;;;;;;14.15;10.38;;;;;;;5.95;100.00;100514.81;5032903;28;20560;-27
2023/01/13 05:00:50;;;;;;;26.08;20.98;;;;;;;5.94;100.00;100511.28;5032364;28;20026;-30
2023/01/13 05:03:17;;;;;;;43.38;31.33;;;;;;;6.11;100.00;100511.19;5031201;28;20538;-27
2023/01/13 05:05:43;;;;;;;25.88;20.52;;;;;;;6.03;100.00;100504.97;5031161;28;20091;-27
2023/01/13 05:08:08;;;;;;;26.88;23.17;;;;;;;6.15;100.00;100496.59;5030774;28;20440;-28
2023/01/13 05:10:34;;;;;;;32.83;27.77;;;;;;;6.30;100.00;100521.28;5030949;28;20037;-31
2023/01/13 05:18:29;;;;;;;22.38;15.63;;;;;;;6.20;100.00;100526.03;5032265;28;20044;-32
2023/01/13 05:20:55;;;;;;;18.30;12.32;;;;;;;6.10;100.00;100536.03;5032415;28;20720;-29
2023/01/13 05:26:04;;;;;;;17.85;12.32;;;;;;;6.08;100.00;100538.03;5031616;28;20575;-28
2023/01/13 05:28:32;;;;;;;16.70;10.65;;;;;;;6.08;100.00;100520.31;5031904;28;20034;-27
2023/01/13 05:30:57;;;;;;;13.60;8.47;;;;;;;6.31;100.00;100533.53;5031981;28;20048;-27
2023/01/13 05:33:23;;;;;;;15.93;9.13;;;;;;;6.21;100.00;100543.53;5031876;28;20417;-29
2023/01/13 05:35:48;;;;;;;12.93;9.50;;;;;;;6.16;100.00;100541.44;5031889;28;20116;-27
2023/01/13 05:38:15;;;;;;;16.23;12.15;;;;;;;6.19;100.00;100550.84;5031335;28;20025;-28
2023/01/13 05:43:26;;;;;;;15.48;9.13;;;;;;;6.11;100.00;100551.75;5031947;28;20527;-30
2023/01/13 05:46:10;;;;;;;15.20;10.10;;;;;;;5.90;100.00;100525.88;5031745;28;20040;-28
2023/01/13 05:48:41;;;;;;;14.68;10.00;;;;;;;5.92;100.00;100558.28;5031601;28;20029;-27
2023/01/13 05:51:08;;;;;;;13.88;9.32;;;;;;;5.69;100.00;100533.66;5030472;28;20041;-27
2023/01/13 05:53:34;;;;;;;17.15;12.60;;;;;;;5.90;100.00;100549.69;5031232;28;20025;-28
2023/01/13 05:56:03;;;;;;;23.05;17.20;;;;;;;5.97;100.00;100553.34;5031465;28;20711;-27
2023/01/13 05:58:28;;;;;;;14.98;10.18;;;;;;;5.77;100.00;100536.25;5031249;28;20452;-27
2023/01/13 06:01:06;;;;;;;15.07;9.77;;;;;;;5.88;100.00;100554.34;5030054;28;20086;-26
2023/01/13 06:03:32;;;;;;;11.57;6.82;;;;;;;5.75;100.00;100548.84;5029662;28;20037;-28
2023/01/13 06:06:00;;;;;;;13.77;7.90;;;;;;;5.70;100.00;100559.94;5031560;28;20464;-28
2023/01/13 06:08:25;;;;;;;;;;;;;;;5.67;100.00;100549.69;5031841;28;20033;-26
2023/01/13 06:10:51;;;;;;;16.02;10.85;;;;;;;5.72;100.00;100538.59;5031315;28;19917;-27
2023/01/13 06:13:16;;;;;;;20.40;16.38;;;;;;;5.73;100.00;100535.75;5031050;28;20108;-29
2023/01/13 06:15:41;;;;;;;19.70;11.75;;;;;;;5.62;100.00;100544.94;5029717;28;20112;-28
2023/01/13 06:18:07;;;;;;;24.15;13.52;;;;;;;5.65;100.00;100564.94;5029495;28;20037;-33
2023/01/13 06:20:32;;;;;;;17.02;9.98;;;;;;;5.64;100.00;100558.81;5031200;28;20033;-29
2023/01/13 06:22:59;;;;;;;25.85;14.43;;;;;;;5.60;100.00;100552.22;5031146;28;20029;-30
2023/01/13 06:25:27;;;;;;;21.50;11.70;;;;;;;5.84;100.00;100568.94;5029581;28;20047;-27
2023/01/13 06:27:53;;;;;;;;;;;;;;;5.73;100.00;100570.16;5031156;28;20048;-27
2023/01/13 06:30:19;;;;;;;25.27;11.85;;;;;;;5.81;100.00;100559.53;5030351;28;19909;-29
2023/01/13 06:32:50;;;;;;;23.50;10.75;;;;;;;5.99;100.00;100572.53;5030657;28;20641;-27
2023/01/13 06:35:20;;;;;;;20.40;10.20;;;;;;;5.96;100.00;100546.38;5030840;28;20049;-28
2023/01/13 06:37:50;;;;;;;16.95;8.52;;;;;;;5.98;100.00;100570.84;5030494;28;20535;-28
2023/01/13 06:40:16;;;;;;;16.38;8.90;;;;;;;5.80;100.00;100547.31;5030559;28;20042;-27
2023/01/13 06:45:28;;;;;;;16.05;8.40;;;;;;;6.16;100.00;100561.81;5030761;28;20471;-31
2023/01/13 06:47:57;;;;;;;22.65;10.77;;;;;;;6.10;100.00;100575.75;5030723;28;20099;-27
2023/01/13 06:50:22;;;;;;;17.83;9.65;;;;;;;6.04;100.00;100554.25;5028947;28;20061;-27
2023/01/13 06:52:48;;;;;;;23.77;13.43;;;;;;;6.21;100.00;100570.03;5030488;28;20068;-28
2023/01/13 06:55:13;;;;;;;48.55;25.02;;;;;;;6.10;100.00;100565.16;5030699;28;20032;-28
2023/01/13 06:57:56;;;;;;;307.05;135.30;;;;;;;6.25;100.00;100566.03;5047921;28;20448;-28
2023/01/13 07:00:23;;;;;;;31.10;18.23;;;;;;;6.39;100.00;100586.44;5044126;28;20013;-26
2023/01/13 07:02:49;;;;;;;29.08;15.20;;;;;;;6.50;100.00;100585.19;5039178;28;20025;-28
2023/01/13 07:05:16;;;;;;;25.60;12.50;;;;;;;6.19;100.00;100588.75;5040062;28;20044;-28
2023/01/13 07:07:41;;;;;;;29.52;15.63;;;;;;;6.03;100.00;100563.22;5037799;28;20036;-26
2023/01/13 07:10:10;;;;;;;29.52;13.80;;;;;;;6.28;100.00;100570.97;5038954;28;20412;-28
2023/01/13 07:15:24;;;;;;;24.95;13.88;;;;;;;6.38;100.00;100590.09;5039750;28;20040;-29
2023/01/13 07:17:52;;;;;;;18.08;8.75;;;;;;;6.31;100.00;100586.50;5037247;28;20029;-31
2023/01/13 07:20:17;;;;;;;14.40;6.82;;;;;;;6.36;100.00;100578.84;5040229;28;20025;-29
2023/01/13 07:22:44;;;;;;;17.25;9.80;;;;;;;6.46;100.00;100598.97;5038959;28;20030;-31
2023/01/13 07:25:10;;;;;;;20.38;11.45;;;;;;;6.27;100.00;100558.72;5038940;28;20405;-28
2023/01/13 07:27:35;;;;;;;22.13;12.30;;;;;;;6.38;100.00;100579.50;5039673;28;20612;-27
2023/01/13 07:30:02;;;;;;;57.08;26.95;;;;;;;6.58;100.00;100602.84;5038479;28;20036;-29
2023/01/13 07:32:31;;;;;;;15.20;7.05;;;;;;;6.33;100.00;100576.53;5037383;28;20531;-27
2023/01/13 07:35:03;;;;;;;17.25;7.30;;;;;;;6.46;100.00;100593.66;5038653;28;20021;-28
2023/01/13 07:37:28;;;;;;;12.38;6.63;;;;;;;6.55;100.00;100603.19;5039740;28;20029;-28
2023/01/13 07:39:54;;;;;;;18.13;7.85;;;;;;;6.48;100.00;100599.59;5044573;28;20094;-27
2023/01/13 07:45:04;;;;;;;18.80;8.73;;;;;;;6.52;100.00;100598.25;5049315;28;20113;-29
2023/01/13 07:47:29;;;;;;;28.70;17.75;;;;;;;6.60;100.00;100600.84;5049247;28;20029;-29
2023/01/13 07:49:54;;;;;;;29.95;14.32;;;;;;;6.78;100.00;100598.69;5047938;28;20028;-27
2023/01/13 07:52:20;;;;;;;27.35;11.77;;;;;;;6.57;100.00;100582.66;5049139;28;20040;-28
2023/01/13 07:54:45;;;;;;;26.67;12.10;;;;;;;6.71;100.00;100608.34;5047908;28;20532;-27
2023/01/13 07:57:10;;;;;;;18.45;7.13;;;;;;;6.93;99.40;100584.63;5047878;28;20086;-28
2023/01/13 07:59:36;;;;;;;13.25;6.53;;;;;;;7.05;98.95;100593.78;5047610;28;20479;-27
2023/01/13 08:02:01;;;;;;;13.95;6.93;;;;;;;6.98;99.20;100592.84;5048806;28;20037;-27
2023/01/13 08:04:27;;;;;;;11.35;5.35;;;;;;;6.69;97.88;100583.84;5049283;28;20021;-30
2023/01/13 08:06:52;;;;;;;11.25;4.80;;;;;;;6.66;98.74;100605.44;5044783;28;20131;-29
2023/01/13 08:09:17;;;;;;;8.80;4.50;;;;;;;6.62;99.09;100614.75;5048085;28;20401;-27
2023/01/13 08:11:43;;;;;;;11.27;5.38;;;;;;;6.58;97.90;100594.91;5047484;28;20525;-32
2023/01/13 08:14:08;;;;;;;11.23;5.97;;;;;;;6.84;97.90;100613.88;5047613;28;20075;-28
2023/01/13 08:16:34;;;;;;;14.55;7.00;;;;;;;6.98;98.60;100614.06;5048757;28;20489;-30
2023/01/13 08:18:59;;;;;;;26.30;15.20;;;;;;;6.99;97.14;100594.50;5047712;28;20025;-29
2023/01/13 08:21:25;;;;;;;15.15;7.90;;;;;;;7.33;96.63;100617.81;5047616;28;20090;-29
2023/01/13 08:23:51;;;;;;;25.85;16.52;;;;;;;7.34;95.99;100594.78;5048959;28;20381;-30
2023/01/13 08:26:17;;;;;;;10.45;4.90;;;;;;;7.27;95.60;100602.63;5047103;28;20083;-29
2023/01/13 08:28:43;;;;;;;9.93;5.95;;;;;;;7.54;95.90;100614.41;5047324;28;20128;-30
2023/01/13 08:31:11;;;;;;;13.38;6.25;;;;;;;7.59;94.16;100625.28;5048869;28;20052;-29
2023/01/13 08:33:37;;;;;;;12.73;7.75;;;;;;;7.76;94.83;100625.06;5049097;28;20035;-29
2023/01/13 08:36:08;;;;;;;10.18;5.75;;;;;;;7.72;93.94;100621.16;5048829;28;20029;-28
2023/01/13 08:38:35;;;;;;;12.98;7.00;;;;;;;7.79;91.78;100609.59;5047554;28;20028;-27
2023/01/13 08:41:06;;;;;;;13.35;6.22;;;;;;;7.98;93.38;100632.06;5047632;28;20028;-29
2023/01/13 08:43:32;;;;;;;12.05;7.65;;;;;;;7.85;91.44;100610.69;5048681;28;20025;-29
2023/01/13 08:46:00;;;;;;;14.75;7.85;;;;;;;8.01;91.31;100631.69;5047326;28;20086;-28
2023/01/13 08:48:26;;;;;;;14.57;8.85;;;;;;;8.04;91.58;100631.31;5047458;28;20021;-27
2023/01/13 08:50:52;;;;;;;17.08;10.75;;;;;;;8.19;91.25;100628.63;5047349;28;20611;-28
2023/01/13 08:53:18;;;;;;;15.10;9.82;;;;;;;8.21;92.13;100625.75;5048656;28;20035;-26
2023/01/13 08:55:43;;;;;;;12.00;8.18;;;;;;;8.38;88.96;100631.66;5048521;28;20052;-28
2023/01/13 08:58:09;;;;;;;9.65;5.97;;;;;;;8.27;87.97;100621.53;5048353;28;20039;-28
2023/01/13 09:00:34;;;;;;;10.40;6.00;;;;;;;8.40;89.08;100635.75;5048320;28;20029;-28
2023/01/13 09:03:00;;;;;;;10.38;6.15;;;;;;;8.59;89.12;100628.19;5048848;28;20092;-29
2023/01/13 09:05:25;;;;;;;11.02;6.15;;;;;;;8.40;87.53;100609.19;5048389;28;20039;-26
2023/01/13 09:07:50;;;;;;;11.77;6.28;;;;;;;8.76;86.67;100626.88;5048630;28;20028;-27
2023/01/13 09:10:16;;;;;;;9.63;5.68;;;;;;;8.73;85.03;100621.97;5048198;28;20473;-33
2023/01/13 09:15:25;;;;;;;8.90;6.25;;;;;;;9.09;84.07;100612.97;5048706;28;20491;-27
2023/01/13 09:17:51;;;;;;;11.30;5.57;;;;;;;8.96;84.36;100586.31;5047157;28;20032;-27
2023/01/13 09:20:16;;;;;;;8.02;4.40;;;;;;;8.98;83.80;100594.91;5046966;28;20029;-30
2023/01/13 09:22:42;;;;;;;7.80;3.90;;;;;;;9.03;85.80;100600.47;5048280;28;20082;-28
2023/01/13 09:25:08;;;;;;;8.52;4.90;;;;;;;8.93;84.42;100597.31;5048319;28;20082;-30
2023/01/13 09:27:33;;;;;;;8.48;4.50;;;;;;;8.99;84.38;100597.38;5048201;28;20140;-28
2023/01/13 09:29:59;;;;;;;9.93;5.38;;;;;;;9.16;84.07;100595.22;5050100;28;20120;-33
2023/01/13 09:32:24;;;;;;;9.98;5.22;;;;;;;9.08;84.21;100590.06;5051912;28;20108;-28
2023/01/13 09:34:58;;;;;;;8.85;4.55;;;;;;;9.10;81.15;100582.72;5050740;28;20033;-27
2023/01/13 09:37:26;;;;;;;8.35;4.40;;;;;;;8.98;80.95;100590.41;5052202;28;20021;-27
2023/01/13 09:39:51;;;;;;;6.32;3.50;;;;;;;8.82;80.10;100580.88;5050426;28;20033;-28
2023/01/13 09:45:19;;;;;;;6.88;3.65;;;;;;;9.25;78.48;100599.38;5051987;28;20028;-29
2023/01/13 09:47:50;;;;;;;8.20;4.82;;;;;;;9.11;79.74;100589.66;5051460;28;20111;-27
2023/01/13 09:50:28;;;;;;;8.20;4.20;;;;;;;8.95;81.01;100589.97;5049939;28;20055;-27
2023/01/13 09:52:54;;;;;;;19.58;14.25;;;;;;;8.91;82.31;100586.06;5051467;28;20112;-27
2023/01/13 09:55:33;;;;;;;9.90;5.78;;;;;;;9.21;81.48;100587.50;5050216;28;20175;-27
2023/01/13 09:58:01;;;;;;;7.50;4.63;;;;;;;8.98;80.13;100563.00;5051453;28;20029;-28
2023/01/13 10:00:35;;;;;;;9.95;5.60;;;;;;;9.05;81.46;100579.81;5051392;28;20029;-28
2023/01/13 10:03:19;;;;;;;8.23;4.65;;;;;;;9.15;80.81;100584.78;5049803;28;20512;-30
2023/01/13 10:05:56;;;;;;;9.52;4.57;;;;;;;9.10;79.94;100573.91;5051454;28;20070;-34
2023/01/13 10:08:24;;;;;;;10.23;4.68;;;;;;;9.22;79.03;100581.13;5051129;28;20099;-27
2023/01/13 10:13:12;;;;;;;9.75;5.05;;;;;;;9.31;79.56;100578.31;5050871;28;20044;-28
2023/01/13 10:13:49;;;;;;;7.93;4.20;;;;;;;9.38;80.35;100568.53;5051166;28;20584;-28
2023/01/13 10:16:26;;;;;;;6.97;3.92;;;;;;;9.48;78.69;100579.63;5050759;28;20028;-28
2023/01/13 10:19:08;;;;;;;23.00;11.15;;;;;;;9.47;78.45;100585.94;5049841;28;20025;-32
2023/01/13 10:21:52;;;;;;;40.25;17.90;;;;;;;9.52;78.97;100578.19;5050843;28;20100;-28
2023/01/13 10:24:54;;;;;;;9.70;5.30;;;;;;;9.35;79.35;100572.38;5050866;28;20033;-27
2023/01/13 10:27:26;;;;;;;8.30;4.68;;;;;;;9.41;78.56;100568.13;5050765;28;20512;-30
2023/01/13 10:29:51;;;;;;;9.55;5.50;;;;;;;9.43;77.75;100545.59;5050451;28;20060;-27
2023/01/13 10:32:16;;;;;;;16.30;10.98;;;;;;;9.76;78.49;100554.69;5050205;28;20056;-28
2023/01/13 10:34:50;;;;;;;9.75;4.85;;;;;;;9.74;77.43;100536.25;5050587;28;20029;-29
2023/01/13 10:37:34;;;;;;;11.20;5.78;;;;;;;9.84;77.02;100550.00;5050825;28;20116;-26
2023/01/13 10:40:03;;;;;;;9.63;5.18;;;;;;;9.91;78.25;100550.03;5049465;28;20021;-32
2023/01/13 10:42:29;;;;;;;10.15;5.70;;;;;;;9.87;76.71;100546.13;5049090;28;20052;-27
2023/01/13 10:44:57;;;;;;;9.48;5.63;;;;;;;10.12;74.58;100542.88;5049235;28;20068;-27
2023/01/13 10:47:28;;;;;;;9.02;4.63;;;;;;;10.25;75.86;100537.53;5050489;28;20028;-27
2023/01/13 10:50:11;;;;;;;8.68;4.80;;;;;;;10.06;78.41;100537.31;5050102;28;20033;-27
2023/01/13 10:52:41;;;;;;;12.30;7.05;;;;;;;10.06;76.09;100508.03;5048794;28;20029;-30
2023/01/13 10:55:35;;;;;;;42.00;18.73;;;;;;;10.29;75.31;100529.97;5048588;28;20492;-28
2023/01/13 10:58:18;;;;;;;17.00;6.30;;;;;;;10.36;73.32;100533.47;5049889;28;20555;-28
2023/01/13 11:00:44;;;;;;;9.73;4.15;;;;;;;10.62;73.28;100527.28;5048534;28;20025;-29
2023/01/13 11:03:14;;;;;;;8.90;4.85;;;;;;;10.83;71.22;100508.38;5048629;28;20409;-27
2023/01/13 11:05:47;;;;;;;11.65;8.85;;;;;;;11.30;69.24;100518.06;5048858;28;20044;-26
2023/01/13 11:08:17;;;;;;;7.80;4.38;;;;;;;11.54;66.71;100524.50;5048461;28;20037;-27
2023/01/13 11:10:49;;;;;;;9.35;4.93;;;;;;;11.12;68.34;100500.06;5050129;28;20029;-27
2023/01/13 11:13:24;;;;;;;9.52;4.70;;;;;;;11.52;67.28;100518.56;5042405;28;20512;-29
2023/01/13 11:15:59;;;;;;;9.32;4.68;;;;;;;12.09;65.33;100529.31;5036953;28;20115;-34
2023/01/13 11:18:34;;;;;;;7.25;4.32;;;;;;;12.42;64.32;100505.81;5044129;28;20037;-30
2023/01/13 11:21:03;;;;;;;10.25;4.80;;;;;;;13.32;63.13;100508.94;5043816;28;20060;-31
2023/01/13 11:23:29;;;;;;;9.00;5.40;;;;;;;13.55;60.98;100514.44;5040134;28;20616;-28
2023/01/13 11:26:02;;;;;;;8.68;4.35;;;;;;;13.73;60.73;100520.75;5039536;28;20045;-29
2023/01/13 11:28:34;;;;;;;8.63;4.38;;;;;;;13.48;59.29;100510.19;5038726;28;20128;-28
2023/01/13 11:31:14;;;;;;;8.93;5.05;;;;;;;13.53;60.43;100516.50;5046695;28;20064;-28
2023/01/13 11:33:51;;;;;;;7.32;4.25;;;;;;;14.39;57.23;100519.72;5049616;28;20037;-27
2023/01/13 11:36:24;;;;;;;7.85;4.35;;;;;;;14.56;61.02;100497.59;5047976;28;20445;-27
2023/01/13 11:38:54;;;;;;;7.68;4.30;;;;;;;14.89;57.34;100501.50;5048920;28;20084;-28
2023/01/13 11:41:41;;;;;;;6.95;4.18;;;;;;;15.50;56.49;100518.84;5049627;28;20044;-29
2023/01/13 11:44:13;;;;;;;;;;;;;;;14.94;56.66;100512.38;5049673;28;20493;-28
2023/01/13 11:46:39;;;;;;;12.05;5.80;;;;;;;14.66;58.03;100511.22;5049204;28;19908;-28
2023/01/13 11:49:05;;;;;;;13.85;7.13;;;;;;;14.33;57.80;100509.91;5049024;28;20104;-28
2023/01/13 11:51:49;;;;;;;8.73;4.30;;;;;;;14.34;57.06;100522.28;5048661;28;20112;-27
2023/01/13 11:54:27;;;;;;;9.57;5.28;;;;;;;14.51;57.40;100513.56;5049214;28;20120;-35
2023/01/13 11:57:01;;;;;;;9.63;5.45;;;;;;;14.38;57.09;100506.53;5047602;28;20512;-28
2023/01/13 12:00:04;;;;;;;7.80;4.25;;;;;;;14.39;56.38;100517.03;5049010;28;20075;-30
2023/01/13 12:02:55;;;;;;;8.02;4.30;;;;;;;14.01;57.04;100502.19;5047632;28;20045;-28
2023/01/13 12:05:26;;;;;;;8.07;4.40;;;;;;;13.92;58.92;100502.75;5049234;28;20116;-29
2023/01/13 12:08:10;;;;;;;7.28;4.13;;;;;;;14.22;57.51;100497.31;5049010;28;20075;-31
2023/01/13 12:11:06;;;;;;;9.35;5.18;;;;;;;14.22;56.10;100495.47;5048872;28;20166;-31